Messwerte Tabora

Temperatur

Temperatur
°C
1603202400 17.00 17.00 30
1603206000 18.00 18.00 27
1603209600 19.00 19.00 24
1603213200 20.00 20.00 23
1603216800 21.00 21.00 23
1603220400 22.00 22.00 23
1603224000 23.00 23.00 22
1603227600 0.00 0.00 22
1603231200 1.00 1.00
1603234800 2.00 2.00 22
1603238400 3.00 3.00 22
1603242000 4.00 4.00 21
1603245600 5.00 5.00
1603249200 6.00 6.00 20
1603252800 7.00 7.00 21
1603256400 8.00 8.00
1603260000 9.00 9.00 23
1603263600 10.00 10.00 25
1603267200 11.00 11.00 28
1603270800 12.00 12.00 29
1603274400 13.00 13.00 30
1603278000 14.00 14.00 32
1603281600 15.00 15.00 32
1603285200 16.00 16.00 33

Aktuellste Messwerte

Wettercharakter
Wetter: wechselnd bewölkt
Temperatur
33 °C
Feuchtigkeit
40 %
Wind
15 km/hWindrichtung: Nordost
Luftdruck
1012 hPa
Messzeit: 21. Oktober 2020, 16.00Datenquelle: METAR

Weitere Messstationen in der Nähe

Messstation Temperatur Entfernung
Mwanza 23 °C 290 km
Sumbawanga 26 °C 344 km
Dodoma 31 °C 347 km
Kigoma 25 °C 355 km
Musoma 27 °C 412 km
Bukoba 26 °C 431 km
Iringa 30 °C 432 km

Wind

Windrichtung Böen Mittelwind
° km/h km/h
1603202400 17.00 16.00 - 17.00 40° 10
1603206000 18.00 17.00 - 18.00 320° 30
1603209600 19.00 18.00 - 19.00 280° 20
1603213200 20.00 19.00 - 20.00 0
1603216800 21.00 20.00 - 21.00 50° 10
1603220400 22.00 21.00 - 22.00 0
1603224000 23.00 22.00 - 23.00 0
1603227600 0.00 23.00 - 0.00 0
1603231200 1.00 0.00 - 1.00
1603234800 2.00 1.00 - 2.00 330° 10
1603238400 3.00 2.00 - 3.00 0
1603242000 4.00 3.00 - 4.00 0
1603245600 5.00 4.00 - 5.00
1603249200 6.00 5.00 - 6.00 0
1603252800 7.00 6.00 - 7.00 0
1603256400 8.00 7.00 - 8.00
1603260000 9.00 8.00 - 9.00 100° 20
1603263600 10.00 9.00 - 10.00 80° 20
1603267200 11.00 10.00 - 11.00 90° 20
1603270800 12.00 11.00 - 12.00 60° 15
1603274400 13.00 12.00 - 13.00 60° 10
1603278000 14.00 13.00 - 14.00 130° 10
1603281600 15.00 14.00 - 15.00 70° 10
1603285200 16.00 15.00 - 16.00 30° 15

Ihre Wetterstation

Fehlt Ihre Wetterstation auf unserem Portal?

Schreiben Sie an network@meteonews.ch